createdAt,value
2018-12-26T00:01:13.613Z,2.49
2018-12-26T00:03:45.313Z,2.42
2018-12-26T00:06:18.928Z,2.40
2018-12-26T00:08:52.331Z,2.41
2018-12-26T00:11:26.297Z,2.36
2018-12-26T00:13:59.447Z,2.36
2018-12-26T00:16:33.416Z,2.46
2018-12-26T00:19:06.586Z,2.36
2018-12-26T00:21:40.475Z,2.34
2018-12-26T00:24:13.432Z,2.32
2018-12-26T00:26:48.501Z,2.23
2018-12-26T00:29:22.348Z,2.19
2018-12-26T00:31:54.301Z,2.41
2018-12-26T00:34:26.796Z,2.35
2018-12-26T00:36:59.392Z,2.40
2018-12-26T00:39:32.375Z,2.33
2018-12-26T00:42:05.274Z,2.30
2018-12-26T00:44:37.415Z,2.27
2018-12-26T00:47:10.267Z,2.47
2018-12-26T00:49:45.389Z,2.33
2018-12-26T00:52:18.457Z,2.06
2018-12-26T00:54:54.013Z,2.21
2018-12-26T00:57:26.494Z,2.14
2018-12-26T00:59:59.493Z,2.13
2018-12-26T01:02:32.404Z,2.12
2018-12-26T01:05:04.828Z,2.09
2018-12-26T01:07:38.048Z,2.04
2018-12-26T01:10:11.743Z,2.05
2018-12-26T01:12:44.664Z,2.05
2018-12-26T01:15:16.611Z,2.12
2018-12-26T01:17:48.571Z,2.21
2018-12-26T01:20:23.178Z,2.25
2018-12-26T01:22:56.708Z,2.19
2018-12-26T01:25:29.659Z,2.31
2018-12-26T01:28:03.661Z,2.23
2018-12-26T01:30:38.626Z,2.13
2018-12-26T01:33:10.256Z,2.17
2018-12-26T01:35:43.705Z,2.22
2018-12-26T01:38:17.675Z,2.17
2018-12-26T01:40:51.628Z,2.17
2018-12-26T01:43:24.632Z,2.11
2018-12-26T01:45:58.819Z,2.16
2018-12-26T01:48:32.806Z,2.12
2018-12-26T01:51:06.706Z,2.10
2018-12-26T01:53:37.976Z,2.10
2018-12-26T01:56:09.637Z,2.09
2018-12-26T01:58:43.810Z,2.10
2018-12-26T02:01:16.860Z,2.05
2018-12-26T02:03:48.894Z,2.05
2018-12-26T02:06:22.809Z,2.01
2018-12-26T02:08:56.882Z,2.02
2018-12-26T02:11:29.795Z,2.00
2018-12-26T02:14:03.750Z,2.08
2018-12-26T02:16:39.473Z,2.01
2018-12-26T02:19:10.814Z,2.12
2018-12-26T02:21:43.478Z,2.13
2018-12-26T02:24:17.006Z,1.97
2018-12-26T02:26:48.862Z,2.00
2018-12-26T02:29:22.993Z,2.22
2018-12-26T02:31:56.016Z,2.17
2018-12-26T02:34:29.868Z,2.14
2018-12-26T02:37:04.557Z,2.09
2018-12-26T02:39:37.036Z,2.16
2018-12-26T02:42:11.573Z,2.14
2018-12-26T02:44:43.908Z,2.31
2018-12-26T02:47:16.269Z,2.15
2018-12-26T02:49:47.979Z,2.10
2018-12-26T02:52:22.103Z,2.06
2018-12-26T02:54:55.967Z,1.98
2018-12-26T02:57:28.079Z,2.01
2018-12-26T03:00:01.825Z,2.04
2018-12-26T03:02:33.960Z,2.08
2018-12-26T03:05:07.306Z,2.04
2018-12-26T03:07:42.729Z,1.98
2018-12-26T03:10:15.825Z,2.12
2018-12-26T03:12:49.084Z,2.17
2018-12-26T03:15:22.513Z,1.99
2018-12-26T03:17:56.262Z,1.96
2018-12-26T03:20:30.273Z,1.97
2018-12-26T03:23:03.077Z,2.04
2018-12-26T03:25:35.209Z,2.01
2018-12-26T03:28:08.121Z,2.03
2018-12-26T03:30:39.471Z,1.93
2018-12-26T03:33:10.913Z,1.86
2018-12-26T03:35:43.208Z,1.97
2018-12-26T03:38:18.759Z,1.84
2018-12-26T03:40:51.851Z,2.03
2018-12-26T03:43:24.415Z,1.91
2018-12-26T03:45:58.604Z,1.96
2018-12-26T03:48:31.546Z,1.86
2018-12-26T03:51:05.944Z,1.96
2018-12-26T03:53:39.332Z,2.03
2018-12-26T03:56:10.688Z,1.93
2018-12-26T03:58:44.318Z,1.84
2018-12-26T04:01:16.360Z,1.80
2018-12-26T04:03:50.469Z,1.74
2018-12-26T04:06:23.385Z,1.83
2018-12-26T04:08:57.260Z,1.86
2018-12-26T04:11:31.616Z,1.86
2018-12-26T04:14:05.550Z,1.98
2018-12-26T04:16:39.217Z,1.95
2018-12-26T04:19:10.732Z,2.20
2018-12-26T04:21:43.467Z,2.17
2018-12-26T04:24:17.592Z,2.12
2018-12-26T04:26:51.552Z,2.20
2018-12-26T04:29:24.446Z,2.20
2018-12-26T04:31:58.411Z,2.16
2018-12-26T04:34:29.697Z,2.19
2018-12-26T04:37:02.432Z,2.19
2018-12-26T04:39:36.527Z,2.21
2018-12-26T04:42:09.436Z,2.17
2018-12-26T04:44:43.623Z,2.26
2018-12-26T04:47:16.501Z,2.17
2018-12-26T04:49:47.799Z,2.11
2018-12-26T04:52:22.996Z,2.09
2018-12-26T04:54:56.383Z,2.16
2018-12-26T04:57:28.512Z,2.22
2018-12-26T05:00:01.477Z,2.21
2018-12-26T05:02:34.459Z,2.12
2018-12-26T05:05:06.478Z,2.02
2018-12-26T05:07:39.613Z,1.92
2018-12-26T05:10:10.923Z,1.82
2018-12-26T05:12:43.482Z,1.73
2018-12-26T05:15:16.615Z,1.80
2018-12-26T05:17:49.725Z,1.01
2018-12-26T05:20:23.775Z,1.69
2018-12-26T05:22:57.087Z,1.68
2018-12-26T05:25:29.714Z,1.69
2018-12-26T05:28:05.294Z,1.64
2018-12-26T05:30:39.663Z,1.59
2018-12-26T05:33:11.047Z,1.65
2018-12-26T05:35:44.719Z,1.62
2018-12-26T05:38:21.965Z,1.58
2018-12-26T05:40:55.665Z,1.52
2018-12-26T05:43:28.682Z,1.65
2018-12-26T05:46:02.660Z,1.65
2018-12-26T05:48:35.707Z,1.66
2018-12-26T05:51:09.809Z,1.68
2018-12-26T05:53:42.876Z,1.63
2018-12-26T05:56:18.906Z,1.69
2018-12-26T05:58:53.695Z,1.75
2018-12-26T06:01:28.950Z,1.67
2018-12-26T06:04:03.068Z,1.74
2018-12-26T06:06:36.998Z,1.69
2018-12-26T06:09:10.761Z,1.67
2018-12-26T06:11:43.888Z,1.64
2018-12-26T06:14:17.855Z,1.68
2018-12-26T06:16:50.990Z,1.79
2018-12-26T06:19:22.301Z,1.90
2018-12-26T06:21:55.712Z,1.95
2018-12-26T06:24:28.987Z,1.88
2018-12-26T06:27:03.118Z,1.95
2018-12-26T06:29:37.153Z,1.91
2018-12-26T06:32:09.998Z,2.12
2018-12-26T06:34:47.458Z,2.04
2018-12-26T06:37:20.980Z,2.10
2018-12-26T06:39:55.171Z,2.04
2018-12-26T06:42:28.175Z,2.09
2018-12-26T06:45:02.914Z,2.20
2018-12-26T06:47:38.348Z,2.11
2018-12-26T06:50:10.456Z,2.09
2018-12-26T06:52:44.177Z,2.06
2018-12-26T06:55:19.019Z,2.06
2018-12-26T06:57:51.162Z,2.05
2018-12-26T07:00:25.088Z,2.10
2018-12-26T07:02:58.115Z,2.19
2018-12-26T07:05:32.307Z,2.15
2018-12-26T07:08:04.987Z,2.10
2018-12-26T07:10:38.038Z,2.12
2018-12-26T07:13:10.012Z,2.30
2018-12-26T07:15:42.998Z,2.25
2018-12-26T07:18:16.989Z,2.25
2018-12-26T07:20:48.340Z,2.24
2018-12-26T07:23:24.159Z,2.24
2018-12-26T07:25:58.756Z,2.27
2018-12-26T07:28:32.330Z,2.30
2018-12-26T07:31:07.369Z,2.30
2018-12-26T07:33:39.382Z,2.33
2018-12-26T07:36:11.553Z,2.38
2018-12-26T07:38:45.258Z,2.45
2018-12-26T07:41:17.532Z,2.46
2018-12-26T07:43:51.213Z,2.48
2018-12-26T07:46:25.448Z,2.56
2018-12-26T07:48:59.513Z,2.60
2018-12-26T07:51:33.447Z,2.59
2018-12-26T07:54:05.762Z,2.57
2018-12-26T07:56:42.653Z,2.63
2018-12-26T07:59:16.020Z,2.61
2018-12-26T08:01:49.725Z,2.60
2018-12-26T08:04:23.477Z,2.71
2018-12-26T08:06:55.186Z,2.64
2018-12-26T08:09:28.270Z,2.73
2018-12-26T08:12:03.353Z,2.72
2018-12-26T08:14:38.706Z,2.68
2018-12-26T08:17:12.551Z,2.69
2018-12-26T08:19:46.664Z,2.89
2018-12-26T08:22:20.674Z,2.95
2018-12-26T08:24:52.212Z,2.93
2018-12-26T08:27:24.602Z,3.05
2018-12-26T08:29:59.791Z,3.09
2018-12-26T08:32:32.389Z,3.14
2018-12-26T08:35:07.778Z,3.27
2018-12-26T08:37:39.510Z,3.27
2018-12-26T08:40:11.184Z,3.32
2018-12-26T08:42:43.546Z,3.42
2018-12-26T08:45:17.686Z,3.38
2018-12-26T08:47:50.464Z,3.41
2018-12-26T08:50:22.002Z,3.61
2018-12-26T08:52:55.595Z,3.72
2018-12-26T08:55:27.850Z,3.98
2018-12-26T08:58:00.683Z,3.93
2018-12-26T09:00:34.740Z,3.92
2018-12-26T09:03:06.784Z,3.80
2018-12-26T09:05:39.859Z,3.82
2018-12-26T09:08:11.294Z,3.94
2018-12-26T09:10:47.527Z,4.12
2018-12-26T09:13:21.725Z,4.15
2018-12-26T09:15:53.141Z,4.28
2018-12-26T09:18:25.156Z,4.42
2018-12-26T09:20:56.637Z,4.52
2018-12-26T09:23:30.562Z,4.55
2018-12-26T09:26:05.101Z,4.84
2018-12-26T09:28:43.835Z,4.84
2018-12-26T09:31:13.768Z,4.83
2018-12-26T09:33:47.814Z,5.00
2018-12-26T09:36:19.227Z,5.14
2018-12-26T09:38:52.679Z,5.42
2018-12-26T09:41:26.867Z,5.49
2018-12-26T09:44:00.096Z,5.30
2018-12-26T09:46:33.983Z,5.30
2018-12-26T09:49:05.922Z,5.24
2018-12-26T09:51:37.832Z,5.21
2018-12-26T09:54:10.107Z,5.02
2018-12-26T09:56:42.864Z,4.99
2018-12-26T09:59:18.477Z,4.95
2018-12-26T10:01:54.385Z,5.02
2018-12-26T10:04:27.271Z,4.88
2018-12-26T10:06:58.576Z,4.68
2018-12-26T10:09:31.878Z,4.57
2018-12-26T10:12:09.797Z,4.59
2018-12-26T10:14:42.149Z,4.56
2018-12-26T10:17:13.876Z,4.45
2018-12-26T10:19:45.994Z,4.52
2018-12-26T10:22:19.997Z,4.48
2018-12-26T10:24:52.891Z,4.45
2018-12-26T10:27:25.826Z,4.38
2018-12-26T10:29:58.171Z,4.48
2018-12-26T10:32:31.146Z,4.31
2018-12-26T10:35:11.994Z,4.24
2018-12-26T10:37:44.231Z,4.27
2018-12-26T10:40:17.162Z,4.23
2018-12-26T10:42:50.883Z,4.14
2018-12-26T10:45:22.973Z,4.16
2018-12-26T10:47:56.501Z,4.10
2018-12-26T10:50:33.096Z,4.29
2018-12-26T10:53:07.432Z,4.14
2018-12-26T10:55:41.070Z,4.14
2018-12-26T10:58:15.305Z,4.20
2018-12-26T11:00:48.466Z,4.10
2018-12-26T11:03:22.443Z,4.18
2018-12-26T11:05:56.101Z,4.33
2018-12-26T11:08:31.754Z,4.33
2018-12-26T11:11:04.132Z,4.25
2018-12-26T11:13:37.276Z,4.40
2018-12-26T11:16:11.060Z,4.43
2018-12-26T11:18:45.880Z,4.54
2018-12-26T11:21:17.312Z,4.72
2018-12-26T11:23:50.808Z,4.69
2018-12-26T11:26:23.034Z,4.86
2018-12-26T11:28:56.440Z,4.90
2018-12-26T11:31:29.326Z,4.93
2018-12-26T11:34:03.312Z,5.10
2018-12-26T11:36:37.361Z,5.23
2018-12-26T11:39:10.564Z,5.36
2018-12-26T11:41:44.420Z,5.49
2018-12-26T11:44:17.443Z,5.60
2018-12-26T11:46:49.515Z,5.58
2018-12-26T11:49:23.694Z,5.59
2018-12-26T11:51:56.205Z,5.74
2018-12-26T11:54:30.552Z,5.85
2018-12-26T11:57:03.391Z,6.10
2018-12-26T11:59:39.053Z,6.13
2018-12-26T12:02:11.053Z,6.06
2018-12-26T12:04:42.428Z,6.19
2018-12-26T12:07:14.425Z,6.22
2018-12-26T12:09:46.695Z,6.23
2018-12-26T12:12:18.025Z,6.18
2018-12-26T12:14:51.571Z,6.23
2018-12-26T12:17:25.577Z,6.31
2018-12-26T12:19:58.577Z,6.21
2018-12-26T12:22:32.575Z,6.22
2018-12-26T12:25:05.559Z,6.20
2018-12-26T12:27:39.541Z,6.10
2018-12-26T12:30:11.391Z,6.08
2018-12-26T12:32:43.526Z,6.15
2018-12-26T12:35:17.729Z,6.02
2018-12-26T12:37:50.516Z,6.06
2018-12-26T12:40:23.535Z,5.98
2018-12-26T12:42:56.520Z,5.97
2018-12-26T12:45:28.579Z,6.04
2018-12-26T12:48:00.026Z,6.04
2018-12-26T12:50:31.655Z,6.08
2018-12-26T12:53:03.824Z,6.09
2018-12-26T12:55:37.092Z,5.88
2018-12-26T12:58:12.638Z,5.85
2018-12-26T13:00:44.279Z,5.81
2018-12-26T13:03:19.494Z,5.76
2018-12-26T13:05:51.932Z,5.75
2018-12-26T13:08:25.853Z,5.85
2018-12-26T13:10:58.682Z,5.94
2018-12-26T13:13:31.855Z,5.87
2018-12-26T13:16:05.844Z,5.78
2018-12-26T13:18:38.013Z,5.65
2018-12-26T13:21:12.933Z,5.65
2018-12-26T13:23:45.564Z,5.63
2018-12-26T13:26:18.239Z,5.54
2018-12-26T13:28:51.979Z,5.60
2018-12-26T13:31:26.371Z,5.54
2018-12-26T13:33:59.058Z,5.47
2018-12-26T13:36:32.746Z,5.49
2018-12-26T13:39:07.744Z,5.37
2018-12-26T13:41:39.929Z,5.31
2018-12-26T13:44:11.762Z,5.33
2018-12-26T13:46:43.854Z,5.37
2018-12-26T13:49:17.973Z,5.24
2018-12-26T13:51:50.934Z,5.23
2018-12-26T13:54:26.629Z,5.28
2018-12-26T13:56:58.823Z,5.15
2018-12-26T13:59:32.885Z,5.05
2018-12-26T14:02:07.564Z,5.06
2018-12-26T14:04:39.885Z,5.13
2018-12-26T14:07:11.446Z,5.01
2018-12-26T14:09:44.094Z,4.87
2018-12-26T14:12:18.050Z,4.87
2018-12-26T14:14:50.993Z,4.99
2018-12-26T14:17:23.154Z,5.06
2018-12-26T14:19:57.180Z,5.04
2018-12-26T14:22:31.076Z,4.86
2018-12-26T14:25:07.593Z,4.91
2018-12-26T14:27:39.002Z,4.84
2018-12-26T14:30:11.675Z,4.71
2018-12-26T14:32:45.910Z,4.67
2018-12-26T14:35:18.059Z,4.59
2018-12-26T14:37:50.054Z,4.58
2018-12-26T14:40:23.146Z,4.54
2018-12-26T14:42:57.154Z,4.55
2018-12-26T14:45:31.113Z,4.38
2018-12-26T14:48:05.978Z,4.18
2018-12-26T14:50:38.250Z,4.06
2018-12-26T14:53:11.366Z,4.11
2018-12-26T14:55:45.352Z,3.99
2018-12-26T14:58:20.493Z,4.09
2018-12-26T15:00:53.365Z,4.01
2018-12-26T15:03:27.788Z,3.93
2018-12-26T15:06:00.383Z,3.76
2018-12-26T15:08:34.765Z,3.73
2018-12-26T15:11:08.219Z,3.71
2018-12-26T15:13:41.406Z,3.65
2018-12-26T15:16:14.225Z,3.54
2018-12-26T15:18:47.588Z,3.40
2018-12-26T15:21:21.504Z,3.40
2018-12-26T15:23:53.254Z,3.34
2018-12-26T15:26:24.808Z,3.28
2018-12-26T15:28:58.320Z,3.39
2018-12-26T15:31:30.386Z,3.28
2018-12-26T15:34:02.285Z,3.30
2018-12-26T15:36:37.925Z,3.20
2018-12-26T15:39:11.745Z,3.22
2018-12-26T15:41:43.336Z,3.12
2018-12-26T15:44:17.546Z,3.09
2018-12-26T15:46:50.618Z,3.00
2018-12-26T15:49:24.498Z,3.13
2018-12-26T15:51:58.599Z,3.10
2018-12-26T15:54:31.872Z,2.93
2018-12-26T15:57:04.048Z,3.03
2018-12-26T15:59:36.922Z,2.99
2018-12-26T16:02:10.676Z,3.02
2018-12-26T16:04:43.563Z,2.87
2018-12-26T16:07:17.715Z,2.86
2018-12-26T16:09:52.881Z,2.71
2018-12-26T16:12:24.611Z,2.61
2018-12-26T16:14:58.584Z,2.56
2018-12-26T16:17:33.043Z,2.56
2018-12-26T16:20:08.394Z,2.57
2018-12-26T16:22:40.353Z,2.53
2018-12-26T16:25:11.924Z,2.50
2018-12-26T16:27:44.801Z,2.47
2018-12-26T16:30:18.720Z,2.50
2018-12-26T16:32:56.599Z,2.46
2018-12-26T16:35:29.568Z,2.41
2018-12-26T16:38:02.811Z,2.40
2018-12-26T16:40:40.269Z,2.53
2018-12-26T16:43:13.846Z,2.48
2018-12-26T16:45:53.232Z,2.44
2018-12-26T16:48:25.881Z,2.51
2018-12-26T16:51:01.250Z,2.53
2018-12-26T16:53:34.017Z,2.53
2018-12-26T16:56:07.820Z,2.53
2018-12-26T16:58:43.979Z,2.57
2018-12-26T17:01:24.198Z,2.62
2018-12-26T17:04:08.260Z,2.65
2018-12-26T17:06:43.179Z,2.68
2018-12-26T17:09:16.001Z,2.89
2018-12-26T17:11:49.811Z,2.79
2018-12-26T17:14:27.079Z,2.77
2018-12-26T17:17:00.798Z,2.85
2018-12-26T17:19:34.904Z,2.83
2018-12-26T17:22:09.030Z,2.89
2018-12-26T17:24:42.122Z,2.89
2018-12-26T17:27:16.618Z,2.79
2018-12-26T17:29:51.731Z,2.94
2018-12-26T17:32:24.189Z,2.99
2018-12-26T17:34:57.943Z,2.98
2018-12-26T17:37:31.815Z,2.98
2018-12-26T17:40:09.320Z,2.93
2018-12-26T17:42:42.197Z,3.15
2018-12-26T17:45:22.953Z,3.17
2018-12-26T17:47:56.050Z,3.12
2018-12-26T17:50:51.562Z,3.22
2018-12-26T17:54:14.578Z,3.38
2018-12-26T17:56:56.252Z,3.27
2018-12-26T17:59:48.767Z,3.31
2018-12-26T18:02:25.924Z,3.28
2018-12-26T18:04:58.285Z,3.33
2018-12-26T18:07:30.410Z,3.31
2018-12-26T18:10:06.029Z,3.28
2018-12-26T18:12:39.235Z,3.35
2018-12-26T18:15:16.092Z,3.32
2018-12-26T18:17:48.605Z,3.30
2018-12-26T18:20:21.225Z,3.23
2018-12-26T18:22:57.223Z,3.29
2018-12-26T18:25:30.428Z,3.35
2018-12-26T18:28:04.147Z,3.29
2018-12-26T18:30:37.048Z,3.29
2018-12-26T18:33:10.458Z,3.23
2018-12-26T18:35:49.638Z,3.28
2018-12-26T18:38:24.674Z,3.31
2018-12-26T18:41:02.381Z,3.36
2018-12-26T18:43:39.020Z,3.44
2018-12-26T18:46:13.025Z,3.44
2018-12-26T18:48:46.701Z,3.30
2018-12-26T18:51:23.981Z,3.23
2018-12-26T18:54:02.787Z,3.27
2018-12-26T18:56:38.496Z,3.30
2018-12-26T18:59:13.070Z,3.19
2018-12-26T19:01:50.501Z,3.12
2018-12-26T19:04:23.626Z,3.21
2018-12-26T19:06:55.632Z,3.20
2018-12-26T19:09:29.805Z,3.32
2018-12-26T19:12:05.436Z,3.17
2018-12-26T19:14:37.468Z,3.12
2018-12-26T19:17:10.401Z,3.16
2018-12-26T19:19:45.711Z,3.04
2018-12-26T19:22:18.766Z,2.98
2018-12-26T19:24:56.210Z,3.07
2018-12-26T19:27:30.612Z,2.94
2018-12-26T19:30:11.588Z,2.99
2018-12-26T19:32:54.871Z,2.97
2018-12-26T19:35:30.463Z,2.98
2018-12-26T19:38:03.055Z,2.99
2018-12-26T19:40:38.555Z,2.96
2018-12-26T19:43:16.048Z,3.10
2018-12-26T19:45:50.920Z,3.02
2018-12-26T19:48:23.530Z,3.11
2018-12-26T19:51:08.289Z,3.12
2018-12-26T19:53:43.194Z,3.08
2018-12-26T19:56:16.824Z,3.08
2018-12-26T19:58:51.373Z,3.05
2018-12-26T20:04:35.776Z,3.07
2018-12-26T20:07:12.294Z,3.14
2018-12-26T20:09:46.008Z,3.15
2018-12-26T20:12:20.046Z,3.04
2018-12-26T20:14:53.715Z,3.08
2018-12-26T20:17:31.313Z,3.08
2018-12-26T20:20:07.460Z,3.08
2018-12-26T20:22:43.641Z,3.07
2018-12-26T20:25:16.267Z,3.12
2018-12-26T20:27:50.938Z,3.21
2018-12-26T20:30:25.262Z,3.19
2018-12-26T20:33:02.354Z,3.07
2018-12-26T20:35:34.023Z,3.08
2018-12-26T20:38:07.660Z,3.07
2018-12-26T20:40:41.576Z,3.07
2018-12-26T20:43:15.310Z,3.02
2018-12-26T20:45:47.076Z,2.97
2018-12-26T20:48:23.096Z,2.94
2018-12-26T20:50:56.740Z,2.96
2018-12-26T20:53:29.826Z,3.00
2018-12-26T20:56:05.641Z,2.94
2018-12-26T20:58:39.109Z,3.04
2018-12-26T21:01:10.523Z,3.04
2018-12-26T21:03:43.974Z,2.94
2018-12-26T21:06:18.483Z,2.99
2018-12-26T21:08:50.719Z,3.07
2018-12-26T21:11:25.056Z,2.96
2018-12-26T21:14:01.435Z,2.98
2018-12-26T21:16:36.956Z,3.07
2018-12-26T21:19:10.791Z,3.12
2018-12-26T21:21:43.114Z,3.14
2018-12-26T21:24:15.500Z,3.13
2018-12-26T21:26:51.166Z,3.16
2018-12-26T21:29:24.623Z,3.13
2018-12-26T21:31:59.378Z,3.11
2018-12-26T21:34:33.629Z,3.19
2018-12-26T21:37:06.908Z,3.17
2018-12-26T21:39:40.925Z,3.15
2018-12-26T21:42:17.311Z,3.10
2018-12-26T21:44:51.246Z,3.13
2018-12-26T21:47:25.081Z,3.07
2018-12-26T21:49:59.731Z,3.17
2018-12-26T21:52:32.042Z,3.14
2018-12-26T21:55:06.685Z,3.22
2018-12-26T21:57:39.190Z,3.19
2018-12-26T22:00:10.910Z,3.13
2018-12-26T22:02:44.319Z,3.04
2018-12-26T22:05:18.900Z,2.98
2018-12-26T22:07:52.211Z,2.98
2018-12-26T22:10:43.747Z,2.97
2018-12-26T22:13:47.122Z,3.03
2018-12-26T22:16:29.040Z,3.08
2018-12-26T22:19:02.078Z,3.14
2018-12-26T22:21:37.507Z,3.04
2018-12-26T22:24:10.492Z,3.06
2018-12-26T22:26:51.129Z,2.94
2018-12-26T22:29:29.191Z,3.00
2018-12-26T22:32:07.477Z,2.94
2018-12-26T22:34:45.713Z,2.86
2018-12-26T22:37:20.833Z,2.81
2018-12-26T22:39:57.686Z,2.75
2018-12-26T22:42:38.468Z,2.82
2018-12-26T22:45:14.180Z,2.77
2018-12-26T22:47:46.139Z,2.78
2018-12-26T22:50:18.653Z,2.71
2018-12-26T22:52:52.666Z,2.76
2018-12-26T22:55:25.083Z,2.61
2018-12-26T22:58:04.989Z,2.60
2018-12-26T23:00:44.920Z,2.56
2018-12-26T23:03:20.522Z,2.45
2018-12-26T23:05:52.499Z,2.48
2018-12-26T23:08:25.504Z,2.47
2018-12-26T23:11:04.550Z,2.38
2018-12-26T23:13:39.155Z,2.38
2018-12-26T23:16:12.791Z,2.85
2018-12-26T23:18:53.092Z,2.70
2018-12-26T23:21:27.105Z,2.65
2018-12-26T23:24:02.841Z,2.54
2018-12-26T23:26:36.647Z,2.39
2018-12-26T23:29:14.107Z,2.38
2018-12-26T23:31:49.995Z,2.47
2018-12-26T23:34:23.626Z,2.41
2018-12-26T23:37:00.309Z,2.38
2018-12-26T23:39:34.729Z,2.45
2018-12-26T23:42:06.695Z,2.34
2018-12-26T23:44:40.538Z,2.29
2018-12-26T23:47:12.163Z,2.28
2018-12-26T23:49:48.619Z,1.62
2018-12-26T23:52:22.634Z,2.28
2018-12-26T23:54:58.387Z,2.39
2018-12-26T23:57:33.368Z,2.33
